createdAt,value
2022-08-19T00:02:00.876Z,1.60
2022-08-19T00:04:33.942Z,1.83
2022-08-19T00:07:02.957Z,1.90
2022-08-19T00:09:31.934Z,1.50
2022-08-19T00:12:01.442Z,1.90
2022-08-19T00:14:32.786Z,1.90
2022-08-19T00:17:02.062Z,1.75
2022-08-19T00:19:32.696Z,1.80
2022-08-19T00:22:01.579Z,1.70
2022-08-19T00:24:30.070Z,1.90
2022-08-19T00:27:25.074Z,2.00
2022-08-19T00:29:52.629Z,1.80
2022-08-19T00:32:21.921Z,1.77
2022-08-19T00:34:53.786Z,1.90
2022-08-19T00:37:23.664Z,1.90
2022-08-19T00:39:53.141Z,1.80
2022-08-19T00:42:22.923Z,1.85
2022-08-19T00:44:51.658Z,1.92
2022-08-19T00:47:20.800Z,2.13
2022-08-19T00:49:56.114Z,1.90
2022-08-19T00:52:29.907Z,2.00
2022-08-19T00:54:59.830Z,1.80
2022-08-19T00:57:35.714Z,1.88
2022-08-19T01:00:07.905Z,2.00
2022-08-19T01:02:36.354Z,2.07
2022-08-19T01:05:12.968Z,2.08
2022-08-19T01:07:42.343Z,2.30
2022-08-19T01:10:15.940Z,2.30
2022-08-19T01:12:44.431Z,2.20
2022-08-19T01:15:16.499Z,2.20
2022-08-19T01:17:45.433Z,2.00
2022-08-19T01:20:20.261Z,2.00
2022-08-19T01:22:52.992Z,2.00
2022-08-19T01:25:25.110Z,2.33
2022-08-19T01:27:56.594Z,2.10
2022-08-19T01:30:34.936Z,2.30
2022-08-19T01:33:06.172Z,2.20
2022-08-19T01:35:37.121Z,2.20
2022-08-19T01:38:11.737Z,2.10
2022-08-19T01:40:43.280Z,2.38
2022-08-19T01:43:11.896Z,2.38
2022-08-19T01:45:41.226Z,2.40
2022-08-19T01:48:10.318Z,2.40
2022-08-19T01:50:39.148Z,2.05
2022-08-19T01:53:12.761Z,2.28
2022-08-19T01:55:44.663Z,2.38
2022-08-19T01:58:16.951Z,2.20
2022-08-19T02:00:46.348Z,2.28
2022-08-19T02:03:15.395Z,2.63
2022-08-19T02:05:44.780Z,2.55
2022-08-19T02:08:14.536Z,2.70
2022-08-19T02:10:45.429Z,2.55
2022-08-19T02:13:15.451Z,2.65
2022-08-19T02:15:43.802Z,2.70
2022-08-19T02:18:12.217Z,3.00
2022-08-19T02:20:42.883Z,2.70
2022-08-19T02:23:15.963Z,2.50
2022-08-19T02:25:46.177Z,2.40
2022-08-19T02:28:18.595Z,2.95
2022-08-19T02:30:49.304Z,2.70
2022-08-19T02:33:18.669Z,2.95
2022-08-19T02:35:47.940Z,2.80
2022-08-19T02:38:29.068Z,2.92
2022-08-19T02:41:00.424Z,2.45
2022-08-19T02:43:33.692Z,2.67
2022-08-19T02:46:03.329Z,2.67
2022-08-19T02:48:33.940Z,2.85
2022-08-19T02:51:02.799Z,2.90
2022-08-19T02:53:32.525Z,2.50
2022-08-19T02:56:01.071Z,2.60
2022-08-19T02:58:29.643Z,2.47
2022-08-19T03:00:59.509Z,2.30
2022-08-19T03:03:27.953Z,2.60
2022-08-19T03:06:11.049Z,2.55
2022-08-19T03:08:43.190Z,2.40
2022-08-19T03:11:17.103Z,2.20
2022-08-19T03:13:45.540Z,2.65
2022-08-19T03:16:15.074Z,2.45
2022-08-19T03:18:43.671Z,2.20
2022-08-19T03:21:17.287Z,2.50
2022-08-19T03:23:47.170Z,2.40
2022-08-19T03:26:17.085Z,2.70
2022-08-19T03:28:51.235Z,2.63
2022-08-19T03:31:43.773Z,2.57
2022-08-19T03:34:16.504Z,2.67
2022-08-19T03:36:45.525Z,2.50
2022-08-19T03:39:16.451Z,2.65
2022-08-19T03:41:48.523Z,2.75
2022-08-19T03:44:20.679Z,2.70
2022-08-19T03:46:51.608Z,2.67
2022-08-19T03:49:26.501Z,2.83
2022-08-19T03:51:58.209Z,2.55
2022-08-19T03:54:28.919Z,2.75
2022-08-19T03:56:59.411Z,2.90
2022-08-19T03:59:30.944Z,2.72
2022-08-19T04:02:02.845Z,2.78
2022-08-19T04:04:32.110Z,2.67
2022-08-19T04:07:00.527Z,2.78
2022-08-19T04:09:30.340Z,3.27
2022-08-19T04:12:00.085Z,2.80
2022-08-19T04:14:31.650Z,2.90
2022-08-19T04:17:01.120Z,2.90
2022-08-19T04:19:31.921Z,2.83
2022-08-19T04:22:00.405Z,2.80
2022-08-19T04:24:30.185Z,2.70
2022-08-19T04:26:59.125Z,2.83
2022-08-19T04:29:28.422Z,3.15
2022-08-19T04:31:59.541Z,2.77
2022-08-19T04:34:30.695Z,2.88
2022-08-19T04:37:00.983Z,2.63
2022-08-19T04:39:50.898Z,2.80
2022-08-19T04:42:37.996Z,2.93
2022-08-19T04:45:09.254Z,2.90
2022-08-19T04:47:48.315Z,2.88
2022-08-19T04:50:26.920Z,3.00
2022-08-19T04:52:56.595Z,3.10
2022-08-19T04:55:27.588Z,3.07
2022-08-19T04:57:56.119Z,2.80
2022-08-19T05:00:24.657Z,3.13
2022-08-19T05:02:53.209Z,3.15
2022-08-19T05:05:21.928Z,2.80
2022-08-19T05:07:50.407Z,3.40
2022-08-19T05:10:18.940Z,3.00
2022-08-19T05:12:48.636Z,3.22
2022-08-19T05:15:17.077Z,3.25
2022-08-19T05:18:05.412Z,3.20
2022-08-19T05:20:51.482Z,3.47
2022-08-19T05:23:22.762Z,3.40
2022-08-19T05:25:52.738Z,3.70
2022-08-19T05:28:22.835Z,4.27
2022-08-19T05:30:51.938Z,4.30
2022-08-19T05:33:20.863Z,4.10
2022-08-19T05:35:50.424Z,4.57
2022-08-19T05:38:19.142Z,4.85
2022-08-19T05:40:48.040Z,5.03
2022-08-19T05:43:17.512Z,5.88
2022-08-19T05:45:47.289Z,5.93
2022-08-19T05:48:16.178Z,6.35
2022-08-19T05:50:46.366Z,6.43
2022-08-19T05:53:17.468Z,7.72
2022-08-19T05:55:45.980Z,7.95
2022-08-19T05:58:14.374Z,8.27
2022-08-19T06:00:45.418Z,9.15
2022-08-19T06:03:15.122Z,8.20
2022-08-19T06:05:51.889Z,9.50
2022-08-19T06:08:33.934Z,9.47
2022-08-19T06:11:20.462Z,10.43
2022-08-19T06:13:51.923Z,10.20
2022-08-19T06:16:29.420Z,11.30
2022-08-19T06:19:01.992Z,9.27
2022-08-19T06:21:33.181Z,11.60
2022-08-19T06:24:02.082Z,9.35
2022-08-19T06:26:30.827Z,8.80
2022-08-19T06:28:59.700Z,11.00
2022-08-19T06:31:30.444Z,11.82
2022-08-19T06:34:00.113Z,9.73
2022-08-19T06:36:34.904Z,9.95
2022-08-19T06:39:04.969Z,9.52
2022-08-19T06:41:37.417Z,10.65
2022-08-19T06:44:09.056Z,10.15
2022-08-19T06:46:43.522Z,9.25
2022-08-19T06:49:23.903Z,10.77
2022-08-19T06:51:53.213Z,10.23
2022-08-19T06:54:23.698Z,9.47
2022-08-19T06:56:52.132Z,11.93
2022-08-19T06:59:23.414Z,11.48
2022-08-19T07:01:55.529Z,10.23
2022-08-19T07:04:28.768Z,9.82
2022-08-19T07:07:19.684Z,12.02
2022-08-19T07:09:54.372Z,12.57
2022-08-19T07:12:32.416Z,10.75
2022-08-19T07:15:00.783Z,11.45
2022-08-19T07:17:30.081Z,13.20
2022-08-19T07:20:05.448Z,11.65
2022-08-19T07:22:35.723Z,11.55
2022-08-19T07:25:07.486Z,12.57
2022-08-19T07:27:36.064Z,10.05
2022-08-19T07:30:06.589Z,10.68
2022-08-19T07:32:35.017Z,9.65
2022-08-19T07:35:06.836Z,9.07
2022-08-19T07:37:38.072Z,9.07
2022-08-19T07:40:08.871Z,8.15
2022-08-19T07:42:37.359Z,8.10
2022-08-19T07:45:08.417Z,7.95
2022-08-19T07:47:48.905Z,8.55
2022-08-19T07:50:22.615Z,7.85
2022-08-19T07:52:52.791Z,8.40
2022-08-19T07:55:42.234Z,7.57
2022-08-19T07:58:12.954Z,7.68
2022-08-19T08:00:41.659Z,7.00
2022-08-19T08:03:10.556Z,7.43
2022-08-19T08:05:58.042Z,7.68
2022-08-19T08:08:48.418Z,6.50
2022-08-19T08:11:21.233Z,6.40
2022-08-19T08:14:00.834Z,6.25
2022-08-19T08:16:32.192Z,6.35
2022-08-19T08:19:01.395Z,6.13
2022-08-19T08:21:31.225Z,6.50
2022-08-19T08:26:29.332Z,6.05
2022-08-19T08:29:00.284Z,5.63
2022-08-19T08:31:29.283Z,5.82
2022-08-19T08:33:57.725Z,6.15
2022-08-19T08:36:26.523Z,6.73
2022-08-19T08:41:44.956Z,6.27
2022-08-19T08:44:21.876Z,7.22
2022-08-19T08:46:55.723Z,7.38
2022-08-19T08:49:39.264Z,7.60
2022-08-19T08:52:11.912Z,5.50
2022-08-19T08:54:49.007Z,7.68
2022-08-19T08:57:37.126Z,8.13
2022-08-19T09:00:15.169Z,7.60
2022-08-19T09:02:44.434Z,7.70
2022-08-19T09:05:16.275Z,7.07
2022-08-19T09:08:01.091Z,7.37
2022-08-19T09:10:44.332Z,6.50
2022-08-19T09:13:23.167Z,6.07
2022-08-19T09:15:59.171Z,7.15
2022-08-19T09:18:29.726Z,6.47
2022-08-19T09:20:58.318Z,6.47
2022-08-19T09:23:27.241Z,5.80
2022-08-19T09:25:57.125Z,5.63
2022-08-19T09:28:27.380Z,7.22
2022-08-19T09:30:56.021Z,7.68
2022-08-19T09:33:24.547Z,7.57
2022-08-19T09:36:04.249Z,4.97
2022-08-19T09:38:43.493Z,5.55
2022-08-19T09:41:18.480Z,5.38
2022-08-19T09:43:50.227Z,6.50
2022-08-19T09:46:20.511Z,7.00
2022-08-19T09:48:53.167Z,6.93
2022-08-19T09:51:27.310Z,7.40
2022-08-19T09:54:01.147Z,7.43
2022-08-19T09:56:35.033Z,6.90
2022-08-19T09:59:05.848Z,6.82
2022-08-19T10:01:35.108Z,7.05
2022-08-19T10:04:14.664Z,6.95
2022-08-19T10:06:53.512Z,6.60
2022-08-19T10:09:33.930Z,6.15
2022-08-19T10:12:06.469Z,5.93
2022-08-19T10:14:40.638Z,5.80
2022-08-19T10:17:19.189Z,6.20
2022-08-19T10:19:55.550Z,5.95
2022-08-19T10:22:25.704Z,5.93
2022-08-19T10:24:54.908Z,4.68
2022-08-19T10:27:26.436Z,3.70
2022-08-19T10:29:55.135Z,4.95
2022-08-19T10:32:33.839Z,3.93
2022-08-19T10:35:06.028Z,5.97
2022-08-19T10:37:34.630Z,4.80
2022-08-19T10:40:05.478Z,4.18
2022-08-19T10:42:35.518Z,4.30
2022-08-19T10:45:04.877Z,4.43
2022-08-19T10:47:33.362Z,3.95
2022-08-19T10:50:19.618Z,3.67
2022-08-19T10:52:51.500Z,3.08
2022-08-19T10:55:41.271Z,4.10
2022-08-19T10:58:16.004Z,3.88
2022-08-19T11:00:45.652Z,4.00
2022-08-19T11:03:14.352Z,3.15
2022-08-19T11:05:43.025Z,3.38
2022-08-19T11:08:22.370Z,3.33
2022-08-19T11:10:54.690Z,2.10
2022-08-19T11:13:25.662Z,3.33
2022-08-19T11:16:07.108Z,3.25
2022-08-19T11:18:38.229Z,4.38
2022-08-19T11:21:13.091Z,2.53
2022-08-19T11:23:42.119Z,2.13
2022-08-19T11:26:10.548Z,2.28
2022-08-19T11:28:40.609Z,3.03
2022-08-19T11:31:13.837Z,3.60
2022-08-19T11:33:47.082Z,2.25
2022-08-19T11:36:17.526Z,2.45
2022-08-19T11:38:49.282Z,2.53
2022-08-19T11:41:19.974Z,2.92
2022-08-19T11:43:49.722Z,2.40
2022-08-19T11:46:19.360Z,2.13
2022-08-19T11:48:47.716Z,2.67
2022-08-19T11:51:22.555Z,2.15
2022-08-19T11:53:51.690Z,2.70
2022-08-19T11:56:21.448Z,1.37
2022-08-19T11:58:51.181Z,2.35
2022-08-19T12:01:22.790Z,2.30
2022-08-19T12:03:53.318Z,1.80
2022-08-19T12:06:26.600Z,2.28
2022-08-19T12:08:55.135Z,2.25
2022-08-19T12:11:23.805Z,2.20
2022-08-19T12:13:54.622Z,2.20
2022-08-19T12:16:27.903Z,1.80
2022-08-19T12:18:58.866Z,1.90
2022-08-19T12:21:30.200Z,1.60
2022-08-19T12:24:00.829Z,2.10
2022-08-19T12:26:32.446Z,1.53
2022-08-19T12:29:02.454Z,2.10
2022-08-19T12:31:31.553Z,1.47
2022-08-19T12:34:03.369Z,1.75
2022-08-19T12:36:31.726Z,1.30
2022-08-19T12:39:01.557Z,1.48
2022-08-19T12:41:30.047Z,1.47
2022-08-19T12:43:59.269Z,1.20
2022-08-19T12:46:28.964Z,1.50
2022-08-19T12:48:58.452Z,1.60
2022-08-19T12:51:28.108Z,1.27
2022-08-19T12:53:56.527Z,1.63
2022-08-19T12:56:24.920Z,1.60
2022-08-19T12:58:53.627Z,1.20
2022-08-19T13:01:23.281Z,1.52
2022-08-19T13:03:54.379Z,1.90
2022-08-19T13:06:23.836Z,1.50
2022-08-19T13:08:54.539Z,1.37
2022-08-19T13:11:26.414Z,1.30
2022-08-19T13:13:56.129Z,1.50
2022-08-19T13:16:24.631Z,1.38
2022-08-19T13:18:54.426Z,1.13
2022-08-19T13:21:24.957Z,1.80
2022-08-19T13:23:54.101Z,1.67
2022-08-19T13:26:23.041Z,1.80
2022-08-19T13:29:09.636Z,1.33
2022-08-19T13:31:59.385Z,1.90
2022-08-19T13:34:35.020Z,1.67
2022-08-19T13:37:05.319Z,1.30
2022-08-19T13:39:34.371Z,1.40
2022-08-19T13:42:05.253Z,1.00
2022-08-19T13:44:33.823Z,1.80
2022-08-19T13:47:07.960Z,1.30
2022-08-19T13:49:38.087Z,1.50
2022-08-19T13:52:07.604Z,1.30
2022-08-19T13:54:36.071Z,0.93
2022-08-19T13:57:04.840Z,1.00
2022-08-19T13:59:33.511Z,1.23
2022-08-19T14:02:02.882Z,1.20
2022-08-19T14:04:31.493Z,1.05
2022-08-19T14:07:01.792Z,1.48
2022-08-19T14:09:30.654Z,1.77
2022-08-19T14:11:59.028Z,1.30
2022-08-19T14:14:27.356Z,0.98
2022-08-19T14:16:55.740Z,1.40
2022-08-19T14:19:24.053Z,1.20
2022-08-19T14:21:53.175Z,1.30
2022-08-19T14:24:22.901Z,1.25
2022-08-19T14:26:51.261Z,0.95
2022-08-19T14:29:20.408Z,1.40
2022-08-19T14:31:49.486Z,1.02
2022-08-19T14:34:17.815Z,1.30
2022-08-19T14:36:47.025Z,1.00
2022-08-19T14:39:18.217Z,1.30
2022-08-19T14:41:48.060Z,1.20
2022-08-19T14:44:16.556Z,1.40
2022-08-19T14:46:49.279Z,1.20
2022-08-19T14:49:19.447Z,1.20
2022-08-19T14:51:48.694Z,1.10
2022-08-19T14:54:17.058Z,1.13
2022-08-19T14:56:45.459Z,1.30
2022-08-19T14:59:15.216Z,1.17
2022-08-19T15:01:44.083Z,0.98
2022-08-19T15:04:12.687Z,1.33
2022-08-19T15:06:43.297Z,0.97
2022-08-19T15:09:12.461Z,0.80
2022-08-19T15:11:40.828Z,0.95
2022-08-19T15:14:11.000Z,1.10
2022-08-19T15:16:42.808Z,1.00
2022-08-19T15:19:12.815Z,1.13
2022-08-19T15:21:41.166Z,1.00
2022-08-19T15:24:10.356Z,1.10
2022-08-19T15:26:38.768Z,0.90
2022-08-19T15:29:07.270Z,1.40
2022-08-19T15:31:38.186Z,1.17
2022-08-19T15:34:08.739Z,1.20
2022-08-19T15:36:37.927Z,1.30
2022-08-19T15:39:09.969Z,0.97
2022-08-19T15:41:39.537Z,1.25
2022-08-19T15:44:13.330Z,1.27
2022-08-19T15:46:44.759Z,1.35
2022-08-19T15:49:19.323Z,1.42
2022-08-19T15:51:52.003Z,1.40
2022-08-19T15:54:22.672Z,1.30
2022-08-19T15:57:18.223Z,1.45
2022-08-19T16:00:04.136Z,1.73
2022-08-19T16:03:02.532Z,1.50
2022-08-19T16:05:50.288Z,1.80
2022-08-19T16:08:18.687Z,2.00
2022-08-19T16:10:47.043Z,2.00
2022-08-19T16:13:15.407Z,2.10
2022-08-19T16:15:44.429Z,2.20
2022-08-19T16:18:12.793Z,2.42
2022-08-19T16:20:42.664Z,2.30
2022-08-19T16:23:11.160Z,2.40
2022-08-19T16:25:39.557Z,2.47
2022-08-19T16:28:09.870Z,2.63
2022-08-19T16:30:40.968Z,2.60
2022-08-19T16:33:11.109Z,2.72
2022-08-19T16:35:41.131Z,2.65
2022-08-19T16:38:09.986Z,3.33
2022-08-19T16:40:38.447Z,2.60
2022-08-19T16:43:08.431Z,2.73
2022-08-19T16:45:36.833Z,2.30
2022-08-19T16:48:06.069Z,2.60
2022-08-19T16:50:48.843Z,2.50
2022-08-19T16:53:22.786Z,2.30
2022-08-19T16:55:57.369Z,2.20
2022-08-19T16:58:29.527Z,2.55
2022-08-19T17:01:03.395Z,3.15
2022-08-19T17:03:36.009Z,2.40
2022-08-19T17:06:17.783Z,2.40
2022-08-19T17:08:51.457Z,2.40
2022-08-19T17:11:21.252Z,2.50
2022-08-19T17:13:50.927Z,2.53
2022-08-19T17:16:22.150Z,2.70
2022-08-19T17:18:52.885Z,3.10
2022-08-19T17:21:21.942Z,2.65
2022-08-19T17:23:51.680Z,2.80
2022-08-19T17:26:20.435Z,2.78
2022-08-19T17:28:50.883Z,2.20
2022-08-19T17:31:23.180Z,2.10
2022-08-19T17:33:52.168Z,2.00
2022-08-19T17:36:23.448Z,1.93
2022-08-19T17:38:55.347Z,2.40
2022-08-19T17:41:24.242Z,1.95
2022-08-19T17:43:52.746Z,2.53
2022-08-19T17:46:21.411Z,2.03
2022-08-19T17:48:53.107Z,2.63
2022-08-19T17:51:25.505Z,2.85
2022-08-19T17:53:55.956Z,2.67
2022-08-19T17:56:25.154Z,3.30
2022-08-19T17:59:00.020Z,2.90
2022-08-19T18:01:44.160Z,2.70
2022-08-19T18:04:20.004Z,2.80
2022-08-19T18:06:53.606Z,2.92
2022-08-19T18:09:26.597Z,2.33
2022-08-19T18:11:57.144Z,2.30
2022-08-19T18:14:33.774Z,2.10
2022-08-19T18:17:06.120Z,2.30
2022-08-19T18:19:41.607Z,1.95
2022-08-19T18:22:13.700Z,2.03
2022-08-19T18:24:45.837Z,2.00
2022-08-19T18:27:14.927Z,1.83
2022-08-19T18:29:43.496Z,2.00
2022-08-19T18:32:15.059Z,2.20
2022-08-19T18:34:45.855Z,1.95
2022-08-19T18:37:14.555Z,2.40
2022-08-19T18:40:02.232Z,1.90
2022-08-19T18:42:48.296Z,1.90
2022-08-19T18:45:34.109Z,2.25
2022-08-19T18:48:27.796Z,1.20
2022-08-19T18:50:58.885Z,2.40
2022-08-19T18:53:29.778Z,1.80
2022-08-19T18:55:59.887Z,1.40
2022-08-19T18:58:32.419Z,1.88
2022-08-19T19:01:02.949Z,1.20
2022-08-19T19:03:31.338Z,1.40
2022-08-19T19:05:59.651Z,0.85
2022-08-19T19:08:28.197Z,1.08
2022-08-19T19:11:05.042Z,1.10
2022-08-19T19:13:33.980Z,1.70
2022-08-19T19:16:02.561Z,1.15
2022-08-19T19:18:33.415Z,1.13
2022-08-19T19:21:01.786Z,1.20
2022-08-19T19:23:30.140Z,1.90
2022-08-19T19:26:00.492Z,1.38
2022-08-19T19:28:29.440Z,1.45
2022-08-19T19:30:59.130Z,1.08
2022-08-19T19:33:28.153Z,1.38
2022-08-19T19:35:56.607Z,0.75
2022-08-19T19:38:24.972Z,1.33
2022-08-19T19:40:53.289Z,1.42
2022-08-19T19:43:23.065Z,0.95
2022-08-19T19:45:52.134Z,0.57
2022-08-19T19:48:20.497Z,1.35
2022-08-19T19:50:54.159Z,0.95
2022-08-19T19:53:26.773Z,1.10
2022-08-19T19:55:58.618Z,1.50
2022-08-19T19:58:30.572Z,1.70
2022-08-19T20:01:02.023Z,1.35
2022-08-19T20:03:38.003Z,1.47
2022-08-19T20:06:07.018Z,0.80
2022-08-19T20:08:53.644Z,1.20
2022-08-19T20:11:34.673Z,1.90
2022-08-19T20:14:08.207Z,1.02
2022-08-19T20:16:38.304Z,1.35
2022-08-19T20:19:07.106Z,1.35
2022-08-19T20:21:36.146Z,1.40
2022-08-19T20:24:08.527Z,1.63
2022-08-19T20:26:38.341Z,1.10
2022-08-19T20:29:13.375Z,1.00
2022-08-19T20:31:57.719Z,1.50
2022-08-19T20:34:29.137Z,1.30
2022-08-19T20:36:57.452Z,0.85
2022-08-19T20:39:25.971Z,1.38
2022-08-19T20:41:56.397Z,1.05
2022-08-19T20:44:26.370Z,1.57
2022-08-19T20:46:57.489Z,0.98
2022-08-19T20:49:27.900Z,1.35
2022-08-19T20:51:57.299Z,1.20
2022-08-19T20:54:27.014Z,1.30
2022-08-19T20:56:55.800Z,0.63
2022-08-19T20:59:27.151Z,1.50
2022-08-19T21:01:55.643Z,1.83
2022-08-19T21:04:24.273Z,1.08
2022-08-19T21:06:52.708Z,1.10
2022-08-19T21:09:21.051Z,1.08
2022-08-19T21:11:49.456Z,1.20
2022-08-19T21:14:17.947Z,1.23
2022-08-19T21:16:47.807Z,1.70
2022-08-19T21:19:19.028Z,1.02
2022-08-19T21:21:50.498Z,1.48
2022-08-19T21:24:18.931Z,1.00
2022-08-19T21:26:51.204Z,0.75
2022-08-19T21:29:20.145Z,1.70
2022-08-19T21:31:50.279Z,1.42
2022-08-19T21:34:18.718Z,2.30
2022-08-19T21:36:47.163Z,1.80
2022-08-19T21:39:15.550Z,2.05
2022-08-19T21:41:43.966Z,2.13
2022-08-19T21:44:12.398Z,1.45
2022-08-19T21:46:40.766Z,2.35
2022-08-19T21:49:10.516Z,1.73
2022-08-19T21:51:38.893Z,2.05
2022-08-19T21:54:07.329Z,2.55
2022-08-19T21:56:42.419Z,1.90
2022-08-19T21:59:10.782Z,2.90
2022-08-19T22:01:39.159Z,2.38
2022-08-19T22:04:08.928Z,1.80
2022-08-19T22:06:37.297Z,2.22
2022-08-19T22:09:05.945Z,2.05
2022-08-19T22:11:34.626Z,2.27
2022-08-19T22:14:03.887Z,2.90
2022-08-19T22:16:33.725Z,2.80
2022-08-19T22:19:02.087Z,2.00
2022-08-19T22:21:40.158Z,2.33
2022-08-19T22:24:10.518Z,2.53
2022-08-19T22:26:38.911Z,2.47
2022-08-19T22:29:07.613Z,2.40
2022-08-19T22:31:37.636Z,1.98
2022-08-19T22:34:07.353Z,2.38
2022-08-19T22:36:37.026Z,1.92
2022-08-19T22:39:06.244Z,2.90
2022-08-19T22:41:34.951Z,1.30
2022-08-19T22:44:03.900Z,2.78
2022-08-19T22:46:33.705Z,1.60
2022-08-19T22:49:02.120Z,1.30
2022-08-19T22:51:48.156Z,1.88
2022-08-19T22:54:18.129Z,1.85
2022-08-19T22:56:46.905Z,2.60
2022-08-19T22:59:15.255Z,3.17
2022-08-19T23:01:43.664Z,3.20
2022-08-19T23:04:12.049Z,0.93
2022-08-19T23:06:42.381Z,2.50
2022-08-19T23:09:16.560Z,1.58
2022-08-19T23:11:47.335Z,2.10
2022-08-19T23:14:17.632Z,1.20
2022-08-19T23:16:50.991Z,1.42
2022-08-19T23:19:21.447Z,2.67
2022-08-19T23:21:50.033Z,2.50
2022-08-19T23:24:18.390Z,2.40
2022-08-19T23:27:05.772Z,2.08
2022-08-19T23:29:51.967Z,1.65
2022-08-19T23:32:21.615Z,2.72
2022-08-19T23:34:50.473Z,0.88
2022-08-19T23:37:19.339Z,2.55
2022-08-19T23:39:47.824Z,2.70
2022-08-19T23:42:17.604Z,2.03
2022-08-19T23:44:51.372Z,1.85
2022-08-19T23:47:20.227Z,1.75
2022-08-19T23:49:48.677Z,1.70
2022-08-19T23:52:17.108Z,2.00
2022-08-19T23:54:45.421Z,1.15
2022-08-19T23:57:14.546Z,2.55
2022-08-19T23:59:46.204Z,1.65
